Time;durP1;ratioP1;P1;durP2;ratioP2;P2;SDS_P1;SDS_P2;PMS_P1;PMS_P2;Temp;Humidity;BMP_temperature;BMP_pressure;BME280_temperature;BME280_humidity;BME280_pressure;Samples;Min_cycle;Max_cycle;Signal;HPM_P1;HPM_P2
2023/04/16 00:03:09;;;;;;;;;;;10.20;1.00;;;;;;5074580;28;19949;-82
2023/04/16 00:08:37;;;;;;;;;;;10.20;1.00;;;;;;5074595;28;19911;-82
2023/04/16 00:14:05;;;;;;;;;;;10.20;1.00;;;;;;5094803;28;19913;-82
2023/04/16 00:16:40;;;;;;;;;;;10.20;1.00;;;;;;5094886;28;20371;-82
2023/04/16 00:19:40;;;;;;;;;;;10.20;1.00;;;;;;5092974;28;19933;-82
2023/04/16 00:25:08;;;;;;;;;;;10.30;1.00;;;;;;5081742;28;19953;-82
2023/04/16 00:30:37;;;;;;;;;;;10.40;1.00;;;;;;5074263;28;19954;-83
2023/04/16 00:33:40;;;;;;;;;;;10.40;1.00;;;;;;5081023;28;19908;-82
2023/04/16 00:36:40;;;;;;;;;;;10.40;1.00;;;;;;5094509;28;19908;-82
2023/04/16 00:42:09;;;;;;;;;;;10.40;1.00;;;;;;5094667;28;20271;-82
2023/04/16 00:44:40;;;;;;;;;;;10.40;1.00;;;;;;5094044;28;19905;-82
2023/04/16 00:47:40;;;;;;;;;;;10.50;1.00;;;;;;5094339;28;19929;-82
2023/04/16 00:56:12;;;;;;;;;;;10.50;1.00;;;;;;5075396;28;20393;-82
2023/04/16 01:01:40;;;;;;;;;;;10.60;1.00;;;;;;5073798;28;20374;-82
2023/04/16 01:04:10;;;;;;;;;;;10.60;1.00;;;;;;5073876;28;20007;-82
2023/04/16 01:07:10;;;;;;;;;;;10.70;1.00;;;;;;5074206;28;19955;-82
2023/04/16 01:12:39;;;;;;;;;;;10.60;1.00;;;;;;5078068;28;20270;-82
2023/04/16 01:18:17;;;;;;;;;;;10.70;1.00;;;;;;5077906;28;19965;-82
2023/04/16 01:26:48;;;;;;;;;;;10.70;1.00;;;;;;5077657;28;19912;-78
2023/04/16 01:29:14;;;;;;;;;;;10.60;1.00;;;;;;5077598;28;19991;-78
2023/04/16 01:34:58;;;;;;;;;;;10.60;1.00;;;;;;5097380;28;19915;-77
2023/04/16 01:37:24;;;;;;;;;;;10.60;1.00;;;;;;5097731;28;20010;-78
2023/04/16 01:40:16;;;;;;;;;;;10.60;1.00;;;;;;5097171;28;19961;-78
2023/04/16 01:42:52;;;;;;;;;;;10.60;1.00;;;;;;5098310;28;19904;-78
2023/04/16 01:45:40;;;;;;;;;;;10.60;1.00;;;;;;5090893;28;19908;-78
2023/04/16 01:48:10;;;;;;;;;;;10.60;1.00;;;;;;5077318;28;19904;-77
2023/04/16 01:54:10;;;;;;;;;;;10.50;1.00;;;;;;5093369;28;20007;-77
2023/04/16 01:56:36;;;;;;;;;;;10.50;1.00;;;;;;5081082;28;19912;-77
2023/04/16 01:59:11;;;;;;;;;;;10.50;1.00;;;;;;5077229;28;19904;-77
2023/04/16 02:01:41;;;;;;;;;;;10.40;1.00;;;;;;5076896;28;19931;-77
2023/04/16 02:04:07;;;;;;;;;;;10.40;1.00;;;;;;5076567;28;19920;-77
2023/04/16 02:06:32;;;;;;;;;;;10.40;1.00;;;;;;5081166;28;19943;-77
2023/04/16 02:09:04;;;;;;;;;;;10.30;1.00;;;;;;5096939;28;19949;-77
2023/04/16 02:11:34;;;;;;;;;;;10.30;1.00;;;;;;5097269;28;19910;-82
2023/04/16 02:14:10;;;;;;;;;;;10.40;1.00;;;;;;5095030;28;20275;-82
2023/04/16 02:16:46;;;;;;;;;;;10.40;1.00;;;;;;5078921;28;19912;-82
2023/04/16 02:19:40;;;;;;;;;;;10.30;1.00;;;;;;5096029;28;19951;-82
2023/04/16 02:22:41;;;;;;;;;;;10.40;1.00;;;;;;5096941;28;19910;-82
2023/04/16 02:25:07;;;;;;;;;;;10.40;1.00;;;;;;5096365;28;19995;-82
2023/04/16 02:27:32;;;;;;;;;;;10.40;1.00;;;;;;5095850;28;19995;-78
2023/04/16 02:29:58;;;;;;;;;;;10.40;1.00;;;;;;5089561;28;19908;-78
2023/04/16 02:32:24;;;;;;;;;;;10.40;1.00;;;;;;5075789;28;19904;-78
2023/04/16 02:34:49;;;;;;;;;;;10.50;1.00;;;;;;5077061;28;19965;-78
2023/04/16 02:37:15;;;;;;;;;;;10.50;1.00;;;;;;5091924;28;19908;-78
2023/04/16 02:39:41;;;;;;;;;;;10.50;1.00;;;;;;5095867;28;20003;-78
2023/04/16 02:42:07;;;;;;;;;;;10.50;1.00;;;;;;5087529;28;19912;-82
2023/04/16 02:44:32;;;;;;;;;;;10.60;1.00;;;;;;5075935;28;20592;-82
2023/04/16 02:47:10;;;;;;;;;;;10.50;1.00;;;;;;5075727;28;19912;-82
2023/04/16 02:50:10;;;;;;;;;;;10.50;1.00;;;;;;5076267;28;19911;-82
2023/04/16 02:52:40;;;;;;;;;;;10.50;1.00;;;;;;5076441;28;19923;-82
2023/04/16 02:55:40;;;;;;;;;;;10.60;1.00;;;;;;5075858;28;19913;-82
2023/04/16 02:58:10;;;;;;;;;;;10.60;1.00;;;;;;5076637;28;19905;-78
2023/04/16 03:01:10;;;;;;;;;;;10.60;1.00;;;;;;5075895;28;19930;-77
2023/04/16 03:03:36;;;;;;;;;;;10.60;1.00;;;;;;5076070;28;20415;-77
2023/04/16 03:09:10;;;;;;;;;;;10.50;1.00;;;;;;5075534;28;20367;-78
2023/04/16 03:11:40;;;;;;;;;;;10.50;1.00;;;;;;5076270;28;19904;-78
2023/04/16 03:14:16;;;;;;;;;;;10.50;1.00;;;;;;5076522;28;20007;-78
2023/04/16 03:16:52;;;;;;;;;;;10.50;1.00;;;;;;5076230;28;19912;-77
2023/04/16 03:19:40;;;;;;;;;;;10.50;1.00;;;;;;5076191;28;20000;-80
2023/04/16 03:22:10;;;;;;;;;;;10.40;1.00;;;;;;5075586;28;19911;-78
2023/04/16 03:24:40;;;;;;;;;;;10.40;1.00;;;;;;5075836;28;19904;-78
2023/04/16 03:27:11;;;;;;;;;;;10.40;1.00;;;;;;5067281;28;19908;-78
2023/04/16 03:29:58;;;;;;;;;;;10.40;1.00;;;;;;5075004;28;19958;-78
2023/04/16 03:35:35;;;;;;;;;;;10.40;1.00;;;;;;5075042;28;19938;-78
2023/04/16 03:38:11;;;;;;;;;;;10.40;1.00;;;;;;5059923;28;20275;-78
2023/04/16 03:40:37;;;;;;;;;;;10.50;1.00;;;;;;5057406;28;20252;-77
2023/04/16 03:46:06;;;;;;;;;;;10.50;1.00;;;;;;5074981;28;19911;-82
2023/04/16 03:54:37;;;;;;;;;;;10.60;1.00;;;;;;5074818;28;20336;-82
2023/04/16 03:57:10;;;;;;;;;;;10.50;1.00;;;;;;5074878;28;19935;-78
2023/04/16 03:59:40;;;;;;;;;;;10.50;1.00;;;;;;5075111;28;19905;-78
2023/04/16 04:02:10;;;;;;;;;;;10.50;1.00;;;;;;5074631;28;19904;-78
2023/04/16 04:05:10;;;;;;;;;;;10.50;1.00;;;;;;5074912;28;19912;-91
2023/04/16 04:08:10;;;;;;;;;;;10.40;1.00;;;;;;5057406;28;19904;-89
2023/04/16 04:10:40;;;;;;;;;;;10.30;1.00;;;;;;5057551;28;19904;-89
2023/04/16 04:16:10;;;;;;;;;;;10.20;1.00;;;;;;5074804;28;19919;-94
2023/04/16 04:24:42;;;;;;;;;;;10.00;1.00;;;;;;5074872;28;19954;-95
2023/04/16 04:27:40;;;;;;;;;;;9.90;1.00;;;;;;5057564;28;19904;-89
2023/04/16 04:30:10;;;;;;;;;;;9.90;1.00;;;;;;5057284;28;20397;-88
2023/04/16 04:33:10;;;;;;;;;;;9.90;1.00;;;;;;5057206;28;19911;-88
2023/04/16 04:35:40;;;;;;;;;;;9.90;1.00;;;;;;5056995;28;20027;-87
2023/04/16 04:38:40;;;;;;;;;;;9.90;1.00;;;;;;5057150;28;20018;-88
2023/04/16 04:41:06;;;;;;;;;;;9.90;1.00;;;;;;5056885;28;19944;-87
2023/04/16 04:43:40;;;;;;;;;;;9.90;1.00;;;;;;5056824;28;19905;-88
2023/04/16 04:46:10;;;;;;;;;;;9.90;1.00;;;;;;5057114;28;19904;-87
2023/04/16 04:48:40;;;;;;;;;;;9.90;1.00;;;;;;5056969;28;19904;-87
2023/04/16 04:51:10;;;;;;;;;;;9.90;1.00;;;;;;5057007;28;19905;-87
2023/04/16 04:53:40;;;;;;;;;;;9.90;1.00;;;;;;5057758;28;19908;-87
2023/04/16 04:56:40;;;;;;;;;;;10.00;1.00;;;;;;5056695;28;19915;-87
2023/04/16 04:59:11;;;;;;;;;;;10.00;1.00;;;;;;5057469;28;20306;-87
2023/04/16 05:01:40;;;;;;;;;;;10.10;1.00;;;;;;5070572;28;19912;-87
2023/04/16 05:04:06;;;;;;;;;;;10.10;1.00;;;;;;5077032;28;19912;-88
2023/04/16 05:06:40;;;;;;;;;;;10.10;1.00;;;;;;5077065;28;19904;-87
2023/04/16 05:09:10;;;;;;;;;;;10.10;1.00;;;;;;5075521;28;19933;-87
2023/04/16 05:11:40;;;;;;;;;;;10.20;1.00;;;;;;5056826;28;19904;-87
2023/04/16 05:14:35;;;;;;;;;;;10.20;1.00;;;;;;5064821;28;19908;-95
2023/04/16 05:17:01;;;;;;;;;;;10.20;1.00;;;;;;5070285;28;19923;-94
2023/04/16 05:22:40;;;;;;;;;;;10.30;1.00;;;;;;5074337;28;19911;-95
2023/04/16 05:25:10;;;;;;;;;;;10.30;1.00;;;;;;5056662;28;19905;-94
2023/04/16 05:27:36;;;;;;;;;;;10.20;1.00;;;;;;5056910;28;19973;-94
2023/04/16 05:33:05;;;;;;;;;;;10.00;1.00;;;;;;5074506;28;19911;-94
2023/04/16 05:35:40;;;;;;;;;;;10.10;1.00;;;;;;5056203;28;19909;-94
2023/04/16 05:41:09;;;;;;;;;;;10.10;1.00;;;;;;5074526;28;19911;-94
2023/04/16 05:43:40;;;;;;;;;;;10.10;1.00;;;;;;5056786;28;20271;-88
2023/04/16 05:46:10;;;;;;;;;;;10.20;1.00;;;;;;5056631;28;19904;-88
2023/04/16 05:54:42;;;;;;;;;;;10.50;1.00;;;;;;5077339;28;19927;-88
2023/04/16 06:00:10;;;;;;;;;;;10.50;1.00;;;;;;5077684;28;20279;-88
2023/04/16 06:11:45;;;;;;;;;;;10.60;1.00;;;;;;5077968;28;19958;-88
2023/04/16 06:14:35;;;;;;;;;;;11.60;1.00;;;;;;5060614;28;20260;-88
2023/04/16 06:17:00;;;;;;;;;;;10.60;1.00;;;;;;5059675;28;19943;-88
2023/04/16 06:22:29;;;;;;;;;;;10.80;1.00;;;;;;5077071;28;19911;-88
2023/04/16 06:25:04;;;;;;;;;;;10.90;1.00;;;;;;5059526;28;20356;-88
2023/04/16 06:27:52;;;;;;;;;;;11.00;1.00;;;;;;5059557;28;19904;-89
2023/04/16 06:39:27;;;;;;;;;;;11.00;1.00;;;;;;5076913;28;19916;-94
2023/04/16 06:44:56;;;;;;;;;;;10.90;1.00;;;;;;5078626;28;20022;-91
2023/04/16 06:50:25;;;;;;;;;;;10.70;1.00;;;;;;5076661;28;19912;-92
2023/04/16 06:55:54;;;;;;;;;;;10.60;1.00;;;;;;5095952;28;19915;-93
2023/04/16 07:04:26;;;;;;;;;;;10.20;1.00;;;;;;5095890;28;19960;-87
2023/04/16 07:13:00;;;;;;;;;;;10.30;1.00;;;;;;5096632;28;19994;-90
2023/04/16 07:18:28;;;;;;;;;;;10.30;1.00;;;;;;5085439;28;20393;-92
2023/04/16 07:23:57;;;;;;;;;;;10.30;1.00;;;;;;5092673;28;19915;-91
2023/04/16 07:29:26;;;;;;;;;;;10.40;1.00;;;;;;5096741;28;20400;-91
2023/04/16 07:34:55;;;;;;;;;;;10.40;1.00;;;;;;5096208;28;20313;-91
2023/04/16 07:37:22;;;;;;;;;;;10.40;1.00;;;;;;5078218;28;20484;-92
2023/04/16 07:42:51;;;;;;;;;;;10.60;1.00;;;;;;5096293;28;19995;-91
2023/04/16 07:45:20;;;;;;;;;;;10.60;1.00;;;;;;5073528;28;19959;-90
2023/04/16 07:50:49;;;;;;;;;;;10.70;1.00;;;;;;5075532;28;19930;-90
2023/04/16 07:59:20;;;;;;;;;;;10.70;1.00;;;;;;5090137;28;19910;-90
2023/04/16 08:04:49;;;;;;;;;;;9.00;1.00;;;;;;5092950;28;19922;-90
2023/04/16 08:10:18;;;;;;;;;;;10.80;1.00;;;;;;5095620;28;19957;-91
2023/04/16 08:15:46;;;;;;;;;;;11.00;1.00;;;;;;5095495;28;19965;-91
2023/04/16 08:24:18;;;;;;;;;;;11.10;1.00;;;;;;5075317;28;19954;-94
2023/04/16 08:29:47;;;;;;;;;;;11.30;1.00;;;;;;5075108;28;19911;-93
2023/04/16 08:32:40;;;;;;;;;;;11.40;1.00;;;;;;5057585;28;19984;-90
2023/04/16 08:35:34;;;;;;;;;;;11.40;1.00;;;;;;5056936;28;19933;-90
2023/04/16 08:41:05;;;;;;;;;;;11.50;1.00;;;;;;5074798;28;19950;-90
2023/04/16 08:43:58;;;;;;;;;;;11.50;1.00;;;;;;5063645;28;19910;-89
2023/04/16 08:46:25;;;;;;;;;;;11.50;1.00;;;;;;5069044;28;19995;-72
2023/04/16 08:48:53;;;;;;;;;;;11.60;1.00;;;;;;5085552;28;19912;-72
2023/04/16 08:51:20;;;;;;;;;;;11.60;1.00;;;;;;5077039;28;19905;-72
2023/04/16 08:53:52;;;;;;;;;;;11.60;1.00;;;;;;5088192;28;19908;-71
2023/04/16 08:56:22;;;;;;;;;;;11.70;1.00;;;;;;5092803;28;19915;-72
2023/04/16 08:58:49;;;;;;;;;;;11.70;1.00;;;;;;5074023;28;19970;-72
2023/04/16 09:01:16;;;;;;;;;;;11.80;1.00;;;;;;5074606;28;19913;-71
2023/04/16 09:03:43;;;;;;;;;;;11.80;1.00;;;;;;5079692;28;19915;-72
2023/04/16 09:06:09;;;;;;;;;;;11.70;1.00;;;;;;5094273;28;19912;-72
2023/04/16 09:08:35;;;;;;;;;;;11.70;1.00;;;;;;5094440;28;19926;-72
2023/04/16 09:11:05;;;;;;;;;;;11.80;1.00;;;;;;5094172;28;19904;-72
2023/04/16 09:13:30;;;;;;;;;;;11.80;1.00;;;;;;5089652;28;19915;-72
2023/04/16 09:15:56;;;;;;;;;;;11.80;1.00;;;;;;5090802;28;20006;-72
2023/04/16 09:18:22;;;;;;;;;;;11.90;1.00;;;;;;5093967;28;19908;-72
2023/04/16 09:20:49;;;;;;;;;;;12.00;1.00;;;;;;5094033;28;19908;-72
2023/04/16 09:23:15;;;;;;;;;;;12.00;1.00;;;;;;5094159;28;19904;-72
2023/04/16 09:25:42;;;;;;;;;;;12.10;1.00;;;;;;5094382;28;19920;-72
2023/04/16 09:28:08;;;;;;;;;;;12.20;1.00;;;;;;5094996;28;19958;-72
2023/04/16 09:30:35;;;;;;;;;;;12.30;1.00;;;;;;5088753;28;19912;-72
2023/04/16 09:33:15;;;;;;;;;;;12.30;1.00;;;;;;5097998;28;20371;-72
2023/04/16 09:36:01;;;;;;;;;;;12.40;1.00;;;;;;5089359;28;19915;-72
2023/04/16 09:38:44;;;;;;;;;;;12.40;1.00;;;;;;5077711;28;19993;-72
2023/04/16 09:41:32;;;;;;;;;;;12.40;1.00;;;;;;5077645;28;20003;-73
2023/04/16 09:44:00;;;;;;;;;;;12.30;1.00;;;;;;5095470;28;20298;-73
2023/04/16 09:46:41;;;;;;;;;;;12.30;1.00;;;;;;5094816;28;19908;-72
2023/04/16 09:49:12;;;;;;;;;;;12.30;1.00;;;;;;5093973;28;20343;-72
2023/04/16 09:51:42;;;;;;;;;;;12.30;1.00;;;;;;5097179;28;19908;-72
2023/04/16 09:54:11;;;;;;;;;;;12.30;1.00;;;;;;5077286;28;19958;-72
2023/04/16 10:00:10;;;;;;;;;;;12.40;1.00;;;;;;5097820;28;19911;-86
2023/04/16 10:08:49;;;;;;;;;;;12.40;1.00;;;;;;5097524;28;19915;-85
2023/04/16 10:11:34;;;;;;;;;;;12.50;1.00;;;;;;5097509;28;19908;-84
2023/04/16 10:14:35;;;;;;;;;;;12.50;1.00;;;;;;5079480;28;19904;-85
2023/04/16 10:17:02;;;;;;;;;;;12.40;1.00;;;;;;5079936;28;19916;-85
2023/04/16 10:22:31;;;;;;;;;;;12.30;1.00;;;;;;5076824;28;19942;-72
2023/04/16 10:24:57;;;;;;;;;;;12.40;1.00;;;;;;5076893;28;20305;-72
2023/04/16 10:27:23;;;;;;;;;;;12.40;1.00;;;;;;5092028;28;19911;-72
2023/04/16 10:29:59;;;;;;;;;;;12.30;1.00;;;;;;5096939;28;19927;-72
2023/04/16 10:32:27;;;;;;;;;;;12.30;1.00;;;;;;5097343;28;20374;-72
2023/04/16 10:34:54;;;;;;;;;;;12.30;1.00;;;;;;5096490;28;20031;-72
2023/04/16 10:37:27;;;;;;;;;;;12.30;1.00;;;;;;5096760;28;19953;-72
2023/04/16 10:39:53;;;;;;;;;;;12.40;1.00;;;;;;5115353;28;20255;-72
2023/04/16 10:42:19;;;;;;;;;;;12.30;1.00;;;;;;5117061;28;19903;-72
2023/04/16 10:47:11;;;;;;;;;;;12.30;1.00;;;;;;5076633;28;20366;-72
2023/04/16 10:49:37;;;;;;;;;;;12.40;1.00;;;;;;5078015;28;19915;-72
2023/04/16 10:52:13;;;;;;;;;;;12.30;1.00;;;;;;5076182;28;19905;-72
2023/04/16 10:54:40;;;;;;;;;;;12.30;1.00;;;;;;5076083;28;19909;-72
2023/04/16 10:57:06;;;;;;;;;;;12.40;1.00;;;;;;5076117;28;19904;-72
2023/04/16 10:59:34;;;;;;;;;;;12.50;1.00;;;;;;5076021;28;19911;-72
2023/04/16 11:02:00;;;;;;;;;;;12.60;1.00;;;;;;5075582;28;19995;-72
2023/04/16 11:04:28;;;;;;;;;;;12.60;1.00;;;;;;5075792;28;19916;-72
2023/04/16 11:07:16;;;;;;;;;;;12.60;1.00;;;;;;5075831;28;20370;-72
2023/04/16 11:10:04;;;;;;;;;;;12.60;1.00;;;;;;5074604;28;20244;-72
2023/04/16 11:12:33;;;;;;;;;;;12.70;1.00;;;;;;5075575;28;19911;-73
2023/04/16 11:15:00;;;;;;;;;;;12.60;1.00;;;;;;5075601;28;19916;-72
2023/04/16 11:17:44;;;;;;;;;;;12.70;1.00;;;;;;5085603;28;19912;-72
2023/04/16 11:20:20;;;;;;;;;;;12.70;1.00;;;;;;5091680;28;19961;-72
2023/04/16 11:22:49;;;;;;;;;;;12.70;1.00;;;;;;5069912;28;19904;-72
2023/04/16 11:25:20;;;;;;;;;;;12.70;1.00;;;;;;5095862;28;20236;-72
2023/04/16 11:27:47;;;;;;;;;;;12.70;1.00;;;;;;5095776;28;19929;-72
2023/04/16 11:30:13;;;;;;;;;;;12.60;1.00;;;;;;5095915;28;19999;-72
2023/04/16 11:32:42;;;;;;;;;;;12.50;1.00;;;;;;5096147;28;19947;-72
2023/04/16 11:35:15;;;;;;;;;;;12.50;1.00;;;;;;5082339;28;19912;-72
2023/04/16 11:37:41;;;;;;;;;;;12.50;1.00;;;;;;5075324;28;19954;-72
2023/04/16 11:40:08;;;;;;;;;;;12.50;1.00;;;;;;5078881;28;19908;-72
2023/04/16 11:42:41;;;;;;;;;;;12.60;1.00;;;;;;5091932;28;19954;-72
2023/04/16 11:45:19;;;;;;;;;;;12.60;1.00;;;;;;5094990;28;19915;-72
2023/04/16 11:47:49;;;;;;;;;;;12.60;1.00;;;;;;5095449;28;20343;-72
2023/04/16 11:50:15;;;;;;;;;;;12.70;1.00;;;;;;5077648;28;19908;-72
2023/04/16 11:52:41;;;;;;;;;;;12.80;1.00;;;;;;5075133;28;19936;-72
2023/04/16 11:55:07;;;;;;;;;;;12.90;1.00;;;;;;5075452;28;20316;-72
2023/04/16 11:57:32;;;;;;;;;;;13.00;1.00;;;;;;5077776;28;19961;-72
2023/04/16 11:59:59;;;;;;;;;;;13.20;1.00;;;;;;5078335;28;19908;-73
2023/04/16 12:02:42;;;;;;;;;;;13.30;1.00;;;;;;5083823;28;19915;-72
2023/04/16 12:05:29;;;;;;;;;;;13.40;1.00;;;;;;5093441;28;19920;-73
2023/04/16 12:07:55;;;;;;;;;;;13.50;1.00;;;;;;5094936;28;19912;-73
2023/04/16 12:10:21;;;;;;;;;;;13.60;1.00;;;;;;5094507;28;19904;-73
2023/04/16 12:13:25;;;;;;;;;;;13.70;1.00;;;;;;5092364;28;19904;-73
2023/04/16 12:15:53;;;;;;;;;;;13.80;1.00;;;;;;5036913;28;19913;-73
2023/04/16 12:18:28;;;;;;;;;;;13.90;1.00;;;;;;5052977;28;19909;-73
2023/04/16 12:21:11;;;;;;;;;;;14.00;1.00;;;;;;5050158;28;19909;-73
2023/04/16 12:23:51;;;;;;;;;;;14.10;1.00;;;;;;5052332;28;20411;-73
2023/04/16 12:26:17;;;;;;;;;;;14.10;1.00;;;;;;5048766;28;19909;-73
2023/04/16 12:29:05;;;;;;;;;;;14.10;1.00;;;;;;5046268;28;19909;-73
2023/04/16 12:31:47;;;;;;;;;;;14.10;1.00;;;;;;5047821;28;20264;-73
2023/04/16 12:34:16;;;;;;;;;;;14.10;1.00;;;;;;5041775;28;19944;-74
2023/04/16 12:37:01;;;;;;;;;;;14.10;1.00;;;;;;5035576;28;19955;-73
2023/04/16 12:39:35;;;;;;;;;;;14.00;1.00;;;;;;5040405;28;19916;-73
2023/04/16 12:42:01;;;;;;;;;;;14.00;1.00;;;;;;5048269;28;19908;-73
2023/04/16 12:44:35;;;;;;;;;;;14.00;1.00;;;;;;5041496;28;19909;-73
2023/04/16 12:47:05;;;;;;;;;;;14.20;1.00;;;;;;5032594;28;19909;-74
2023/04/16 12:49:30;;;;;;;;;;;14.40;1.00;;;;;;5052729;28;19962;-73
2023/04/16 12:52:10;;;;;;;;;;;14.60;1.00;;;;;;5083265;28;19939;-74
2023/04/16 12:54:41;;;;;;;;;;;14.80;1.00;;;;;;5094045;28;19941;-74
2023/04/16 12:57:06;;;;;;;;;;;15.00;1.00;;;;;;5090613;28;19920;-73
2023/04/16 12:59:32;;;;;;;;;;;15.20;1.00;;;;;;5085147;28;19908;-74
2023/04/16 13:01:59;;;;;;;;;;;15.40;1.00;;;;;;5083355;28;20283;-74
2023/04/16 13:04:25;;;;;;;;;;;15.50;1.00;;;;;;5083633;28;19920;-72
2023/04/16 13:06:51;;;;;;;;;;;15.60;1.00;;;;;;5092434;28;19908;-72
2023/04/16 13:09:18;;;;;;;;;;;15.70;1.00;;;;;;5100886;28;19945;-72
2023/04/16 13:11:44;;;;;;;;;;;15.70;1.00;;;;;;5097121;28;19908;-72
2023/04/16 13:14:11;;;;;;;;;;;15.70;1.00;;;;;;5080543;28;20255;-72
2023/04/16 13:16:37;;;;;;;;;;;15.50;1.00;;;;;;5094753;28;19912;-72
2023/04/16 13:22:06;;;;;;;;;;;15.80;1.00;;;;;;5086882;28;19915;-74
2023/04/16 13:24:31;;;;;;;;;;;15.90;1.00;;;;;;5088835;28;19908;-74
2023/04/16 13:26:59;;;;;;;;;;;16.00;1.00;;;;;;5080318;28;19915;-74
2023/04/16 13:35:34;;;;;;;;;;;16.70;1.00;;;;;;5081651;28;19920;-83
2023/04/16 13:41:04;;;;;;;;;;;16.60;1.00;;;;;;5092535;28;20358;-85
2023/04/16 13:49:47;;;;;;;;;;;17.00;1.00;;;;;;5080164;28;20390;-91
2023/04/16 13:58:18;;;;;;;;;;;17.70;1.00;;;;;;5100919;28;19910;-90
2023/04/16 14:03:47;;;;;;;;;;;17.60;1.00;;;;;;5084928;28;19914;-89
2023/04/16 14:06:28;;;;;;;;;;;17.60;1.00;;;;;;5076866;28;19950;-87
2023/04/16 14:09:28;;;;;;;;;;;17.70;1.00;;;;;;5083229;28;19969;-90
2023/04/16 14:14:57;;;;;;;;;;;17.20;1.00;;;;;;5081977;28;19914;-87
2023/04/16 14:18:00;;;;;;;;;;;16.90;1.00;;;;;;5077590;28;19916;-86
2023/04/16 14:26:31;;;;;;;;;;;16.60;1.00;;;;;;5097382;28;19915;-89
2023/04/16 14:35:19;;;;;;;;;;;15.90;1.00;;;;;;5093864;28;19919;-87
2023/04/16 14:37:46;;;;;;;;;;;15.60;1.00;;;;;;5072715;28;19987;-84
2023/04/16 14:43:52;;;;;;;;;;;15.30;1.00;;;;;;5082732;28;19916;-88
2023/04/16 14:46:54;;;;;;;;;;;15.10;1.00;;;;;;5058541;28;19954;-88
2023/04/16 14:52:22;;;;;;;;;;;14.90;1.00;;;;;;5084721;28;20412;-78
2023/04/16 14:55:23;;;;;;;;;;;14.90;1.00;;;;;;5082190;28;19916;-77
2023/04/16 14:58:16;;;;;;;;;;;15.20;1.00;;;;;;5082643;28;19912;-77
2023/04/16 15:00:47;;;;;;;;;;;15.70;1.00;;;;;;5078474;28;19908;-76
2023/04/16 15:03:12;;;;;;;;;;;16.20;1.00;;;;;;5077332;28;19916;-76
2023/04/16 15:11:58;;;;;;;;;;;17.20;1.00;;;;;;5078302;28;20018;-79
2023/04/16 15:14:36;;;;;;;;;;;17.10;1.00;;;;;;5085006;28;19969;-79
2023/04/16 15:17:01;;;;;;;;;;;17.00;1.00;;;;;;5085183;28;20053;-79
2023/04/16 15:19:35;;;;;;;;;;;16.90;1.00;;;;;;5090280;28;19961;-75
2023/04/16 15:22:11;;;;;;;;;;;16.80;1.00;;;;;;5088853;28;19908;-76
2023/04/16 15:24:47;;;;;;;;;;;16.70;1.00;;;;;;5084913;28;19908;-76
2023/04/16 15:30:34;;;;;;;;;;;16.60;1.00;;;;;;5091868;28;19915;-77
2023/04/16 15:33:19;;;;;;;;;;;16.60;1.00;;;;;;5093718;28;19907;-76
2023/04/16 15:35:44;;;;;;;;;;;16.60;1.00;;;;;;5075598;28;19912;-77
2023/04/16 15:38:11;;;;;;;;;;;16.50;1.00;;;;;;5075802;28;19909;-76
2023/04/16 15:40:53;;;;;;;;;;;16.40;1.00;;;;;;5078407;28;19940;-77
2023/04/16 15:43:35;;;;;;;;;;;16.30;1.00;;;;;;5081948;28;19918;-76
2023/04/16 15:46:11;;;;;;;;;;;16.20;1.00;;;;;;5091364;28;20367;-76
2023/04/16 15:48:59;;;;;;;;;;;16.00;1.00;;;;;;5092132;28;19955;-76
2023/04/16 15:57:30;;;;;;;;;;;15.80;1.00;;;;;;5091027;28;20325;-78
2023/04/16 16:02:59;;;;;;;;;;;15.50;1.00;;;;;;5077705;28;19915;-78
2023/04/16 16:05:47;;;;;;;;;;;15.40;1.00;;;;;;5080877;28;19912;-78
2023/04/16 16:14:36;;;;;;;;;;;15.00;1.00;;;;;;5081050;28;19919;-75
2023/04/16 16:17:05;;;;;;;;;;;14.90;1.00;;;;;;5094834;28;19922;-75
2023/04/16 16:19:31;;;;;;;;;;;14.90;1.00;;;;;;5079083;28;20356;-78
2023/04/16 16:21:56;;;;;;;;;;;14.90;1.00;;;;;;5083212;28;19915;-76
2023/04/16 16:24:23;;;;;;;;;;;14.90;1.00;;;;;;5083517;28;19924;-77
2023/04/16 16:26:48;;;;;;;;;;;14.80;1.00;;;;;;5076502;28;19959;-77
2023/04/16 16:29:17;;;;;;;;;;;14.70;1.00;;;;;;5074181;28;19904;-76
2023/04/16 16:31:42;;;;;;;;;;;14.60;1.00;;;;;;5089559;28;19965;-76
2023/04/16 16:34:11;;;;;;;;;;;14.50;1.00;;;;;;5094140;28;20347;-77
2023/04/16 16:39:58;;;;;;;;;;;14.30;1.00;;;;;;5093136;28;19992;-79
2023/04/16 16:42:25;;;;;;;;;;;14.30;1.00;;;;;;5073793;28;19904;-79
2023/04/16 16:44:53;;;;;;;;;;;14.30;1.00;;;;;;5091391;28;20370;-81
2023/04/16 16:47:40;;;;;;;;;;;14.20;1.00;;;;;;5094105;28;19998;-80
2023/04/16 16:50:11;;;;;;;;;;;14.10;1.00;;;;;;5094462;28;20002;-81
2023/04/16 16:55:47;;;;;;;;;;;14.10;1.00;;;;;;5079792;28;19961;-81
2023/04/16 17:01:16;;;;;;;;;;;13.90;1.00;;;;;;5081595;28;19953;-81
2023/04/16 17:04:04;;;;;;;;;;;13.90;1.00;;;;;;5093872;28;19904;-81
2023/04/16 17:07:05;;;;;;;;;;;13.90;1.00;;;;;;5094085;28;20436;-81
2023/04/16 17:12:35;;;;;;;;;;;13.90;1.00;;;;;;5094293;28;19926;-86
2023/04/16 17:15:28;;;;;;;;;;;13.90;1.00;;;;;;5064884;28;19942;-86
2023/04/16 17:18:17;;;;;;;;;;;13.90;1.00;;;;;;5056213;28;19908;-83
2023/04/16 17:20:42;;;;;;;;;;;13.90;1.00;;;;;;5073845;28;19950;-84
2023/04/16 17:26:17;;;;;;;;;;;13.90;1.00;;;;;;5114022;28;19949;-82
2023/04/16 17:29:11;;;;;;;;;;;13.80;1.00;;;;;;5114115;28;19903;-82
2023/04/16 17:34:59;;;;;;;;;;;13.70;1.00;;;;;;5086893;28;20048;-80
2023/04/16 17:37:46;;;;;;;;;;;13.60;1.00;;;;;;5073656;28;19915;-80
2023/04/16 17:40:41;;;;;;;;;;;13.50;1.00;;;;;;5087611;28;19916;-80
2023/04/16 17:43:17;;;;;;;;;;;13.50;1.00;;;;;;5073511;28;19904;-82
2023/04/16 17:48:47;;;;;;;;;;;13.30;1.00;;;;;;5074340;28;20094;-81
2023/04/16 17:51:15;;;;;;;;;;;13.30;1.00;;;;;;5088160;28;19927;-81
2023/04/16 17:53:41;;;;;;;;;;;13.20;1.00;;;;;;5059133;28;19904;-82
2023/04/16 17:56:11;;;;;;;;;;;13.20;1.00;;;;;;5074419;28;19928;-82
2023/04/16 17:58:37;;;;;;;;;;;13.10;1.00;;;;;;5076349;28;19904;-81
2023/04/16 18:01:02;;;;;;;;;;;13.10;1.00;;;;;;5076410;28;19928;-81
2023/04/16 18:03:28;;;;;;;;;;;13.00;1.00;;;;;;5076532;28;19908;-84
2023/04/16 18:05:54;;;;;;;;;;;13.00;1.00;;;;;;5076210;28;20287;-81
2023/04/16 18:08:19;;;;;;;;;;;13.00;1.00;;;;;;5076808;28;19904;-82
2023/04/16 18:10:45;;;;;;;;;;;13.00;1.00;;;;;;5076590;28;19911;-84
2023/04/16 18:13:10;;;;;;;;;;;13.00;1.00;;;;;;5076514;28;20344;-83
2023/04/16 18:15:41;;;;;;;;;;;13.00;1.00;;;;;;5076231;28;19984;-84
2023/04/16 18:18:06;;;;;;;;;;;12.90;1.00;;;;;;5076405;28;19915;-83
2023/04/16 18:20:32;;;;;;;;;;;12.90;1.00;;;;;;5076293;28;19905;-83
2023/04/16 18:22:57;;;;;;;;;;;12.90;1.00;;;;;;5076286;28;19915;-86
2023/04/16 18:25:23;;;;;;;;;;;12.90;1.00;;;;;;5077173;28;19927;-88
2023/04/16 18:27:48;;;;;;;;;;;12.70;1.00;;;;;;5058825;28;19904;-87
2023/04/16 18:30:14;;;;;;;;;;;12.70;1.00;;;;;;5059011;28;19912;-86
2023/04/16 18:32:41;;;;;;;;;;;12.70;1.00;;;;;;5059007;28;20403;-86
2023/04/16 18:35:06;;;;;;;;;;;12.60;1.00;;;;;;5050897;28;20425;-83
2023/04/16 18:37:32;;;;;;;;;;;12.60;1.00;;;;;;5058204;28;19908;-87
2023/04/16 18:39:58;;;;;;;;;;;12.60;1.00;;;;;;5058426;28;19914;-83
2023/04/16 18:42:23;;;;;;;;;;;12.50;1.00;;;;;;5076073;28;20574;-83
2023/04/16 18:44:52;;;;;;;;;;;12.70;1.00;;;;;;5076194;28;19947;-84
2023/04/16 18:47:23;;;;;;;;;;;12.50;1.00;;;;;;5057864;28;19911;-83
2023/04/16 18:49:48;;;;;;;;;;;12.50;1.00;;;;;;5076039;28;20270;-83
2023/04/16 18:52:14;;;;;;;;;;;12.50;1.00;;;;;;5057940;28;19911;-83
2023/04/16 18:54:41;;;;;;;;;;;12.90;1.00;;;;;;5058607;28;19905;-87
2023/04/16 18:57:06;;;;;;;;;;;12.40;1.00;;;;;;5058439;28;20007;-87
2023/04/16 18:59:32;;;;;;;;;;;12.40;1.00;;;;;;5058200;28;19943;-85
2023/04/16 19:01:57;;;;;;;;;;;12.30;1.00;;;;;;5057281;28;19904;-86
2023/04/16 19:04:23;;;;;;;;;;;12.20;1.00;;;;;;5057833;28;19957;-87
2023/04/16 19:06:48;;;;;;;;;;;12.10;1.00;;;;;;5075965;28;19966;-87
2023/04/16 19:09:14;;;;;;;;;;;12.10;1.00;;;;;;5076411;28;20325;-84
2023/04/16 19:11:40;;;;;;;;;;;12.00;1.00;;;;;;5075428;28;19911;-83
2023/04/16 19:14:06;;;;;;;;;;;12.10;1.00;;;;;;5057579;28;20374;-84
2023/04/16 19:16:32;;;;;;;;;;;12.00;1.00;;;;;;5057568;28;19961;-83
2023/04/16 19:18:57;;;;;;;;;;;11.90;1.00;;;;;;5057389;28;19912;-82
2023/04/16 19:21:23;;;;;;;;;;;11.90;1.00;;;;;;5075147;28;19948;-83
2023/04/16 19:23:48;;;;;;;;;;;11.80;1.00;;;;;;5057786;28;19909;-86
2023/04/16 19:26:14;;;;;;;;;;;11.80;1.00;;;;;;5057601;28;19904;-87
2023/04/16 19:28:41;;;;;;;;;;;11.70;1.00;;;;;;5057885;28;19904;-87
2023/04/16 19:31:07;;;;;;;;;;;11.60;1.00;;;;;;5057989;28;19904;-87
2023/04/16 19:33:32;;;;;;;;;;;11.60;1.00;;;;;;5057905;28;19954;-87
2023/04/16 19:35:59;;;;;;;;;;;11.50;1.00;;;;;;5057750;28;19919;-86
2023/04/16 19:38:24;;;;;;;;;;;11.60;1.00;;;;;;5057488;28;19905;-87
2023/04/16 19:40:50;;;;;;;;;;;11.50;1.00;;;;;;5057842;28;19911;-87
2023/04/16 19:43:15;;;;;;;;;;;11.60;1.00;;;;;;5057141;28;19904;-87
2023/04/16 19:45:45;;;;;;;;;;;11.40;1.00;;;;;;5056933;28;19911;-87
2023/04/16 19:48:10;;;;;;;;;;;11.50;1.00;;;;;;5057438;28;20390;-87